CheckWX is a tool to help pilots better visualize weather data.  It is not intended as a substitute for an official pre-flight weather briefing.

05:11:01 UTC

KILM METAR
Wilmington International Airport
Wilmington, North Carolina, USA
Current

18 mins ago

KILM 240453Z 31004KT 7SM OVC003 10/09 A3007 RMK AO2 SLP182 T01000089 401220061
Observed
Feb-24 @ 04:53 UTC
Wind
  • 310° at 4 KTS
Visibility
7 SM
Flight Rules
LIFR
Cloud Levels
  • Overcast at 300' AGL
Temperature
10°C / 50°F
Dewpoint
C / 48°F
Humidity
94%
Altimeter
30.07" Hg
Pressure
1018.2 hPa
Previous

1 hour ago

KILM 240353Z 32005KT 5SM BR OVC002 10/09 A3010 RMK AO2 SLP194 LAST T01000089
Observed
Feb-24 @ 03:53 UTC
Wind
  • 320° at 5 KTS
Visibility
5 SM
Flight Rules
LIFR
Conditions
Mist
Cloud Levels
  • Overcast at 200' AGL
Temperature
10°C / 50°F
Dewpoint
C / 48°F
Humidity
94%
Altimeter
30.1" Hg
Pressure
1019.4 hPa
Previous

1 hour ago

KILM 240346Z 29006KT 3SM BR OVC002 10/09 A3011 RMK AO2 LAST T01000089
Observed
Feb-24 @ 03:46 UTC
Wind
  • 290° at 6 KTS
Visibility
3 SM
Flight Rules
LIFR
Conditions
Mist
Cloud Levels
  • Overcast at 200' AGL
Temperature
10°C / 50°F
Dewpoint
C / 48°F
Humidity
94%
Altimeter
30.11" Hg
Pressure
1019.62 hPa